Time;durP1;ratioP1;P1;durP2;ratioP2;P2;SDS_P1;SDS_P2;PMS_P1;PMS_P2;Temp;Humidity;BMP_temperature;BMP_pressure;BME280_temperature;BME280_humidity;BME280_pressure;Samples;Min_cycle;Max_cycle;Signal;HPM_P1;HPM_P2
2022/09/15 00:01:53;;;;;;;20.67;10.55;;;14.70;99.90;;;;;;5076722;28;20033;-77
2022/09/15 00:04:21;;;;;;;15.02;9.88;;;14.90;99.90;;;;;;5060339;28;20043;-77
2022/09/15 00:06:49;;;;;;;21.10;10.88;;;14.70;99.90;;;;;;5077571;28;20040;-77
2022/09/15 00:09:16;;;;;;;20.08;10.18;;;14.70;99.90;;;;;;5076855;28;20048;-78
2022/09/15 00:11:48;;;;;;;17.83;10.30;;;14.70;99.90;;;;;;5060018;28;20056;-76
2022/09/15 00:14:17;;;;;;;18.58;10.25;;;14.80;99.90;;;;;;5058749;28;20060;-78
2022/09/15 00:16:48;;;;;;;18.73;9.70;;;14.60;99.90;;;;;;5059453;28;20470;-77
2022/09/15 00:19:16;;;;;;;20.75;9.73;;;15.90;99.90;;;;;;5076515;28;20049;-77
2022/09/15 00:21:46;;;;;;;21.15;10.05;;;14.80;99.90;;;;;;5076450;28;20045;-78
2022/09/15 00:24:13;;;;;;;19.35;10.25;;;14.60;99.90;;;;;;5059961;28;20049;-78
2022/09/15 00:26:44;;;;;;;15.05;9.60;;;14.50;99.90;;;;;;5059624;28;20059;-78
2022/09/15 00:29:26;;;;;;;22.40;9.68;;;14.50;99.90;;;;;;5045433;28;20064;-78
2022/09/15 00:31:54;;;;;;;14.20;9.80;;;14.50;99.90;;;;;;5077018;28;20056;-76
2022/09/15 00:34:22;;;;;;;;;;;14.40;99.90;;;;;;5058950;28;20052;-77
2022/09/15 00:36:49;;;;;;;19.45;9.77;;;14.30;99.90;;;;;;5059443;28;19927;-78
2022/09/15 00:39:17;;;;;;;21.25;10.07;;;14.30;99.90;;;;;;5059610;28;20485;-76
2022/09/15 00:41:45;;;;;;;18.17;10.65;;;14.40;99.90;;;;;;5076007;28;20056;-77
2022/09/15 00:44:18;;;;;;;17.95;10.48;;;14.20;99.90;;;;;;5059887;28;20059;-78
2022/09/15 00:46:52;;;;;;;20.45;10.90;;;14.20;99.90;;;;;;5077226;28;20037;-76
2022/09/15 00:49:40;;;;;;;18.42;11.30;;;14.10;99.90;;;;;;5076586;28;20049;-77
2022/09/15 00:52:14;;;;;;;22.70;11.18;;;14.00;99.90;;;;;;5076841;28;20053;-77
2022/09/15 00:54:54;;;;;;;17.85;11.70;;;13.90;99.90;;;;;;5058323;28;20044;-77
2022/09/15 00:57:30;;;;;;;22.80;11.13;;;13.80;99.90;;;;;;5076830;28;20056;-78
2022/09/15 01:00:01;;;;;;;20.08;11.60;;;13.70;99.90;;;;;;5076606;28;20056;-77
2022/09/15 01:02:32;;;;;;;20.92;11.75;;;13.60;99.90;;;;;;5075777;28;20033;-76
2022/09/15 01:05:03;;;;;;;19.00;11.88;;;13.50;99.90;;;;;;5059283;28;20505;-76
2022/09/15 01:07:45;;;;;;;19.17;12.23;;;13.50;99.90;;;;;;5058061;28;20484;-78
2022/09/15 01:10:24;;;;;;;21.27;12.45;;;13.40;99.90;;;;;;5076436;28;20074;-77
2022/09/15 01:12:56;;;;;;;25.98;12.60;;;13.40;99.90;;;;;;5059044;28;20474;-77
2022/09/15 01:15:30;;;;;;;19.77;12.05;;;13.30;99.90;;;;;;5057668;28;20052;-77
2022/09/15 01:18:19;;;;;;;23.08;12.00;;;13.40;99.90;;;;;;5058848;28;20048;-77
2022/09/15 01:21:01;;;;;;;20.35;11.98;;;13.40;99.90;;;;;;5057769;28;20049;-78
2022/09/15 01:23:59;;;;;;;22.45;12.35;;;13.50;99.90;;;;;;5076212;28;20051;-76
2022/09/15 01:26:57;;;;;;;20.10;12.30;;;13.50;99.90;;;;;;5076174;28;20056;-78
2022/09/15 01:29:42;;;;;;;20.63;12.80;;;13.60;99.90;;;;;;5057472;28;20467;-77
2022/09/15 01:35:34;;;;;;;23.67;13.30;;;13.40;99.90;;;;;;5074720;28;20049;-77
2022/09/15 01:38:38;;;;;;;22.13;13.55;;;13.40;99.90;;;;;;5076142;28;20360;-76
2022/09/15 01:41:30;;;;;;;23.38;14.02;;;13.40;99.90;;;;;;5057150;28;20037;-76
2022/09/15 01:44:14;;;;;;;25.65;14.85;;;13.30;99.90;;;;;;5076077;28;20044;-77
2022/09/15 01:46:49;;;;;;;28.25;15.77;;;13.20;99.90;;;;;;5075911;28;20045;-78
2022/09/15 01:49:23;;;;;;;25.00;16.02;;;13.20;99.90;;;;;;5074861;28;20075;-77
2022/09/15 01:51:53;;;;;;;25.35;16.40;;;13.10;99.90;;;;;;5075539;28;20055;-77
2022/09/15 01:54:38;;;;;;;30.55;16.73;;;13.10;99.90;;;;;;5040622;28;20048;-78
2022/09/15 01:57:09;;;;;;;28.05;16.60;;;13.00;99.90;;;;;;5058741;28;20055;-78
2022/09/15 01:59:36;;;;;;;29.67;18.08;;;12.90;99.90;;;;;;5058276;28;20051;-77
2022/09/15 02:02:11;;;;;;;25.40;17.55;;;13.00;99.90;;;;;;5056784;28;20052;-76
2022/09/15 02:04:57;;;;;;;29.55;18.58;;;12.90;99.90;;;;;;5057864;28;20049;-77
2022/09/15 02:07:35;;;;;;;33.75;18.42;;;12.80;99.90;;;;;;5074645;28;20045;-77
2022/09/15 02:10:16;;;;;;;33.58;18.92;;;12.80;99.90;;;;;;5057899;28;20040;-78
2022/09/15 02:12:49;;;;;;;32.95;19.05;;;12.80;99.90;;;;;;5057628;28;20060;-77
2022/09/15 02:15:32;;;;;;;31.50;19.75;;;12.70;99.90;;;;;;5056651;28;20060;-77
2022/09/15 02:18:03;;;;;;;30.92;19.10;;;12.70;99.90;;;;;;5057797;28;20048;-77
2022/09/15 02:20:42;;;;;;;34.17;19.85;;;12.70;99.90;;;;;;5073960;28;20204;-76
2022/09/15 02:23:38;;;;;;;33.97;21.05;;;12.70;99.90;;;;;;5074951;28;20047;-76
2022/09/15 02:26:12;;;;;;;35.92;21.88;;;12.60;99.90;;;;;;5047589;28;20040;-79
2022/09/15 02:28:43;;;;;;;37.85;21.75;;;12.60;99.90;;;;;;5039819;28;20044;-76
2022/09/15 02:31:14;;;;;;;33.13;21.23;;;12.50;99.90;;;;;;5057547;28;20051;-77
2022/09/15 02:33:47;;;;;;;35.67;21.52;;;12.60;99.90;;;;;;5056198;28;20044;-77
2022/09/15 02:36:18;;;;;;;35.45;21.17;;;12.60;99.90;;;;;;5057753;28;20044;-78
2022/09/15 02:38:51;;;;;;;35.72;22.27;;;12.50;99.90;;;;;;5075072;28;20459;-76
2022/09/15 02:41:19;;;;;;;48.42;23.25;;;12.50;99.90;;;;;;5073582;28;20056;-76
2022/09/15 02:43:48;;;;;;;35.30;23.15;;;12.60;99.90;;;;;;5074812;28;20036;-76
2022/09/15 02:46:20;;;;;;;35.83;21.65;;;12.80;99.90;;;;;;5074844;28;20036;-75
2022/09/15 02:48:47;;;;;;;40.67;22.92;;;12.40;99.90;;;;;;5073454;28;20048;-78
2022/09/15 02:51:19;;;;;;;39.53;22.73;;;12.50;99.90;;;;;;5036705;28;20312;-77
2022/09/15 02:53:50;;;;;;;41.08;22.83;;;12.50;99.90;;;;;;5037280;28;20494;-77
2022/09/15 02:56:18;;;;;;;36.92;24.23;;;12.40;99.90;;;;;;5054291;28;20048;-78
2022/09/15 02:58:46;;;;;;;36.10;24.55;;;12.60;99.90;;;;;;5054623;28;20049;-76
2022/09/15 03:01:14;;;;;;;44.67;24.63;;;12.40;99.90;;;;;;5053363;28;20048;-77
2022/09/15 03:03:43;;;;;;;36.38;23.05;;;12.50;99.90;;;;;;5037552;28;20067;-76
2022/09/15 03:06:15;;;;;;;39.72;22.67;;;12.50;99.90;;;;;;5037317;28;20053;-78
2022/09/15 03:08:47;;;;;;;37.65;22.20;;;12.40;99.90;;;;;;5035932;28;20060;-76
2022/09/15 03:11:18;;;;;;;30.27;20.95;;;12.80;99.90;;;;;;5054574;28;20049;-77
2022/09/15 03:13:46;;;;;;;32.90;21.77;;;12.60;99.90;;;;;;5020029;28;20049;-76
2022/09/15 03:16:14;;;;;;;;;;;12.60;99.90;;;;;;5055078;28;20041;-76
2022/09/15 03:18:42;;;;;;;31.92;19.95;;;12.50;99.90;;;;;;5054590;28;19920;-77
2022/09/15 03:21:12;;;;;;;32.00;19.67;;;12.60;99.90;;;;;;5053285;28;20494;-78
2022/09/15 03:23:40;;;;;;;31.33;19.48;;;12.60;99.90;;;;;;5037023;28;20048;-77
2022/09/15 03:26:09;;;;;;;33.83;20.35;;;12.60;99.90;;;;;;5020278;28;20049;-77
2022/09/15 03:28:37;;;;;;;33.15;20.35;;;12.00;99.90;;;;;;5053113;28;20041;-77
2022/09/15 03:31:06;;;;;;;35.25;20.58;;;12.50;99.90;;;;;;5054381;28;20053;-77
2022/09/15 03:33:35;;;;;;;30.95;20.83;;;12.60;99.90;;;;;;5053181;28;20371;-77
2022/09/15 03:36:03;;;;;;;;;;;11.00;99.90;;;;;;5054784;28;20476;-77
2022/09/15 03:38:30;;;;;;;;;;;12.40;99.90;;;;;;5053864;28;20267;-78
2022/09/15 03:41:00;;;;;;;35.97;20.63;;;12.50;99.90;;;;;;5053008;28;19920;-77
2022/09/15 03:43:29;;;;;;;39.67;22.15;;;12.50;99.90;;;;;;5054385;28;20048;-76
2022/09/15 03:45:57;;;;;;;38.03;22.52;;;12.50;99.90;;;;;;5036906;28;20056;-77
2022/09/15 03:48:27;;;;;;;37.22;22.27;;;13.00;99.90;;;;;;5052810;28;20057;-78
2022/09/15 03:50:54;;;;;;;32.92;21.15;;;12.50;99.90;;;;;;5020486;28;20107;-75
2022/09/15 03:53:22;;;;;;;37.30;21.80;;;12.50;99.90;;;;;;5038775;28;20059;-77
2022/09/15 03:55:50;;;;;;;34.13;20.05;;;12.50;99.90;;;;;;5056809;28;20044;-77
2022/09/15 03:58:18;;;;;;;35.90;21.27;;;12.80;99.90;;;;;;5058187;28;20044;-77
2022/09/15 04:00:46;;;;;;;33.92;20.30;;;11.00;99.90;;;;;;5039125;28;20045;-76
2022/09/15 04:03:14;;;;;;;29.83;20.90;;;12.50;99.90;;;;;;5057833;28;20041;-78
2022/09/15 04:05:41;;;;;;;33.05;19.83;;;12.60;99.90;;;;;;5057944;28;20040;-78
2022/09/15 04:08:11;;;;;;;35.60;21.55;;;12.50;99.90;;;;;;5056474;28;20040;-77
2022/09/15 04:10:40;;;;;;;37.47;20.95;;;12.60;99.90;;;;;;5057791;28;20053;-76
2022/09/15 04:13:07;;;;;;;;;;;12.50;99.90;;;;;;5057795;28;20049;-76
2022/09/15 04:15:35;;;;;;;32.60;20.73;;;12.60;99.90;;;;;;5039034;28;19920;-78
2022/09/15 04:18:03;;;;;;;37.72;20.83;;;11.60;99.90;;;;;;5057203;28;20071;-76
2022/09/15 04:20:37;;;;;;;37.58;21.45;;;11.90;99.90;;;;;;5056386;28;20217;-77
2022/09/15 04:23:04;;;;;;;35.40;20.08;;;12.60;99.90;;;;;;5057369;28;20045;-77
2022/09/15 04:25:32;;;;;;;31.23;19.90;;;12.70;99.90;;;;;;5040041;28;20045;-77
2022/09/15 04:27:59;;;;;;;34.00;21.08;;;12.60;99.90;;;;;;5056075;28;20032;-77
2022/09/15 04:30:27;;;;;;;29.38;19.73;;;12.70;99.90;;;;;;5056947;28;20045;-77
2022/09/15 04:32:55;;;;;;;36.20;19.48;;;12.70;99.90;;;;;;5040683;28;20041;-77
2022/09/15 04:35:22;;;;;;;37.08;20.40;;;12.70;99.90;;;;;;5038944;28;20049;-77
2022/09/15 04:37:50;;;;;;;38.72;21.75;;;12.70;99.90;;;;;;5039421;28;20057;-76
2022/09/15 04:40:20;;;;;;;42.17;20.88;;;12.70;99.90;;;;;;5056071;28;20361;-77
2022/09/15 04:42:47;;;;;;;35.53;20.95;;;12.70;99.90;;;;;;5056720;28;20056;-77
2022/09/15 04:45:15;;;;;;;34.90;21.35;;;12.70;99.90;;;;;;5023063;28;20068;-78
2022/09/15 04:47:44;;;;;;;;;;;12.70;99.90;;;;;;5056634;28;20049;-77
2022/09/15 04:50:11;;;;;;;29.90;19.60;;;12.60;99.90;;;;;;5056891;28;19924;-78
2022/09/15 04:52:39;;;;;;;38.05;21.55;;;12.60;99.90;;;;;;5056653;28;20045;-77
2022/09/15 04:55:07;;;;;;;38.05;21.70;;;12.60;99.90;;;;;;5055672;28;20049;-78
2022/09/15 04:57:34;;;;;;;36.35;21.45;;;12.60;99.90;;;;;;5056751;28;20368;-77
2022/09/15 05:00:05;;;;;;;38.03;20.85;;;10.90;99.90;;;;;;5039003;28;20387;-77
2022/09/15 05:02:32;;;;;;;33.67;21.52;;;12.40;99.90;;;;;;5038091;28;20037;-78
2022/09/15 05:05:01;;;;;;;41.75;22.05;;;12.60;99.90;;;;;;5056433;28;20048;-76
2022/09/15 05:07:28;;;;;;;40.10;22.15;;;12.80;99.90;;;;;;5055354;28;20371;-76
2022/09/15 05:09:56;;;;;;;39.35;22.35;;;12.60;99.90;;;;;;5056453;28;20056;-78
2022/09/15 05:12:23;;;;;;;35.67;22.95;;;12.60;99.90;;;;;;5039367;28;20067;-77
2022/09/15 05:14:51;;;;;;;36.78;22.23;;;13.00;99.90;;;;;;5038148;28;20056;-77
2022/09/15 05:17:18;;;;;;;34.40;22.63;;;12.80;99.90;;;;;;5038830;28;20063;-76
2022/09/15 05:19:50;;;;;;;42.90;24.00;;;12.60;99.90;;;;;;5056461;28;20045;-77
2022/09/15 05:22:18;;;;;;;34.58;22.92;;;12.70;99.90;;;;;;5055260;28;20041;-78
2022/09/15 05:24:46;;;;;;;35.25;22.85;;;12.70;99.90;;;;;;5056269;28;20383;-76
2022/09/15 05:27:13;;;;;;;36.70;23.63;;;12.70;99.90;;;;;;5037301;28;20051;-77
2022/09/15 05:29:41;;;;;;;40.97;20.90;;;12.80;99.90;;;;;;5055947;28;20056;-76
2022/09/15 05:32:12;;;;;;;39.15;20.33;;;11.90;99.90;;;;;;5038580;28;20044;-76
2022/09/15 05:34:40;;;;;;;30.83;18.67;;;11.00;99.90;;;;;;5054743;28;20467;-76
2022/09/15 05:37:09;;;;;;;30.92;16.23;;;11.30;99.90;;;;;;5041898;28;20041;-76
2022/09/15 05:39:39;;;;;;;26.70;15.90;;;12.70;99.90;;;;;;4986700;28;20373;-76
2022/09/15 05:42:07;;;;;;;24.77;15.77;;;12.70;99.90;;;;;;5034673;28;20049;-76
2022/09/15 05:44:35;;;;;;;27.85;15.07;;;12.70;99.90;;;;;;5018797;28;20279;-76
2022/09/15 05:47:03;;;;;;;32.22;15.23;;;12.70;99.90;;;;;;5017738;28;20060;-76
2022/09/15 05:49:31;;;;;;;26.83;14.70;;;12.80;99.90;;;;;;5035528;28;20061;-76
2022/09/15 05:51:59;;;;;;;19.88;13.38;;;12.70;99.90;;;;;;5036134;28;20056;-77
2022/09/15 05:54:27;;;;;;;25.85;14.13;;;12.90;99.90;;;;;;5035079;28;20057;-76
2022/09/15 05:56:57;;;;;;;26.05;15.27;;;13.00;99.90;;;;;;5018460;28;20060;-77
2022/09/15 05:59:25;;;;;;;24.33;12.88;;;12.90;99.90;;;;;;5035719;28;20053;-77
2022/09/15 06:01:52;;;;;;;19.67;13.05;;;12.90;99.90;;;;;;5017001;28;20502;-77
2022/09/15 06:04:20;;;;;;;20.73;11.70;;;13.00;99.90;;;;;;5036071;28;20049;-77
2022/09/15 06:06:48;;;;;;;25.02;12.23;;;13.10;99.90;;;;;;5018447;28;20487;-77
2022/09/15 06:09:15;;;;;;;21.35;12.20;;;13.00;99.90;;;;;;5034228;28;20495;-77
2022/09/15 06:11:44;;;;;;;20.23;12.40;;;13.00;99.90;;;;;;5018186;28;20515;-77
2022/09/15 06:14:12;;;;;;;19.75;11.25;;;13.00;99.90;;;;;;5017060;28;20049;-77
2022/09/15 06:16:40;;;;;;;25.75;11.88;;;13.30;99.90;;;;;;5034479;28;20060;-77
2022/09/15 06:19:08;;;;;;;19.80;11.80;;;13.10;99.90;;;;;;5035175;28;20041;-77
2022/09/15 06:21:35;;;;;;;18.88;10.27;;;13.10;99.90;;;;;;5016811;28;20488;-77
2022/09/15 06:24:05;;;;;;;19.73;10.38;;;13.10;99.90;;;;;;5035289;28;20046;-77
2022/09/15 06:26:33;;;;;;;17.17;9.93;;;13.30;99.90;;;;;;5035092;28;20049;-76
2022/09/15 06:29:03;;;;;;;19.75;9.50;;;13.20;99.90;;;;;;5033863;28;20045;-77
2022/09/15 06:31:32;;;;;;;16.25;9.40;;;13.30;99.90;;;;;;5018285;28;20046;-77
2022/09/15 06:34:02;;;;;;;23.63;10.07;;;13.30;99.90;;;;;;5033996;28;20049;-77
2022/09/15 06:36:30;;;;;;;19.75;9.45;;;13.30;99.90;;;;;;5017771;28;20057;-78
2022/09/15 06:38:58;;;;;;;18.98;9.38;;;12.70;99.90;;;;;;5035016;28;20056;-76
2022/09/15 06:41:42;;;;;;;19.10;9.23;;;13.30;99.90;;;;;;5016711;28;20050;-77
2022/09/15 06:44:28;;;;;;;19.50;8.85;;;13.50;99.90;;;;;;5035217;28;20046;-77
2022/09/15 06:46:57;;;;;;;15.05;8.10;;;13.80;99.90;;;;;;5016332;28;20452;-76
2022/09/15 06:49:30;;;;;;;23.52;8.48;;;13.60;99.90;;;;;;5017213;28;20056;-77
2022/09/15 06:52:00;;;;;;;12.45;7.60;;;13.60;99.90;;;;;;5034823;28;20053;-77
2022/09/15 06:54:28;;;;;;;14.45;8.32;;;13.60;99.90;;;;;;5000286;28;20045;-77
2022/09/15 06:56:55;;;;;;;15.23;7.80;;;13.80;99.90;;;;;;5034128;28;20452;-77
2022/09/15 06:59:23;;;;;;;16.20;8.40;;;13.80;99.90;;;;;;5034453;28;20045;-77
2022/09/15 07:01:53;;;;;;;11.60;7.40;;;14.10;99.90;;;;;;5016136;28;20045;-77
2022/09/15 07:04:22;;;;;;;13.40;7.20;;;13.90;99.90;;;;;;5001149;28;20054;-76
2022/09/15 07:07:10;;;;;;;11.48;7.18;;;13.90;99.90;;;;;;5016865;28;20049;-78
2022/09/15 07:10:31;;;;;;;13.02;6.85;;;14.10;99.90;;;;;;5020996;28;20042;-77
2022/09/15 07:13:22;;;;;;;10.95;7.20;;;14.20;99.90;;;;;;5003812;28;20037;-76
2022/09/15 07:15:59;;;;;;;15.20;7.35;;;14.10;99.90;;;;;;5033161;28;20049;-77
2022/09/15 07:18:34;;;;;;;12.20;6.90;;;14.10;99.90;;;;;;5034180;28;20468;-77
2022/09/15 07:21:17;;;;;;;15.20;7.45;;;14.40;99.90;;;;;;5033086;28;20464;-77
2022/09/15 07:23:49;;;;;;;10.27;6.65;;;14.60;99.90;;;;;;5016503;28;20054;-75
2022/09/15 07:26:26;;;;;;;15.80;7.20;;;14.30;99.90;;;;;;5033976;28;20049;-76
2022/09/15 07:28:57;;;;;;;9.38;6.57;;;14.40;99.90;;;;;;5019802;28;20064;-76
2022/09/15 07:31:28;;;;;;;13.27;7.05;;;14.50;99.90;;;;;;5038192;28;20049;-75
2022/09/15 07:33:57;;;;;;;12.30;6.57;;;14.50;99.90;;;;;;5051488;28;20060;-75
2022/09/15 07:36:25;;;;;;;16.77;6.93;;;14.50;99.90;;;;;;5021672;28;20053;-75
2022/09/15 07:39:00;;;;;;;14.27;6.57;;;14.50;99.90;;;;;;5056929;28;20045;-79
2022/09/15 07:41:39;;;;;;;12.10;7.20;;;14.50;99.90;;;;;;5057073;28;20455;-79
2022/09/15 07:44:41;;;;;;;;;;;;;;;;;;;;;
2022/09/15 07:47:18;;;;;;;18.13;6.85;;;14.80;99.90;;;;;;5057197;28;20053;-79
2022/09/15 07:50:13;;;;;;;10.43;6.93;;;14.90;99.90;;;;;;5058368;28;20056;-79
2022/09/15 07:53:11;;;;;;;10.75;6.43;;;14.10;99.90;;;;;;5039599;28;20057;-80
2022/09/15 07:57:05;;;;;;;10.95;6.22;;;15.10;99.90;;;;;;4957538;28;20051;-80
2022/09/15 08:00:19;;;;;;;12.60;6.45;;;15.40;99.90;;;;;;4989787;28;20142;-79
2022/09/15 08:04:34;;;;;;;12.65;6.80;;;15.50;99.90;;;;;;4966611;28;20047;-78
2022/09/15 08:07:24;;;;;;;12.18;6.40;;;15.60;99.90;;;;;;4994822;28;20042;-80
2022/09/15 08:10:39;;;;;;;9.52;6.82;;;16.60;99.90;;;;;;4976633;28;20069;-74
2022/09/15 08:16:23;;;;;;;16.27;6.93;;;15.80;99.90;;;;;;5053573;28;20061;-78
2022/09/15 08:19:06;;;;;;;14.18;7.28;;;15.80;99.90;;;;;;5057030;28;20060;-80
2022/09/15 08:21:34;;;;;;;13.70;6.75;;;16.60;99.90;;;;;;5055669;28;20049;-78
2022/09/15 08:24:08;;;;;;;16.77;6.80;;;15.80;99.90;;;;;;5056917;28;20057;-74
2022/09/15 08:26:37;;;;;;;20.42;6.88;;;15.90;99.90;;;;;;5057021;28;20053;-77
2022/09/15 08:29:08;;;;;;;12.90;6.93;;;14.40;99.90;;;;;;5038835;28;20049;-74
2022/09/15 08:31:51;;;;;;;18.10;7.05;;;15.90;99.90;;;;;;5039409;28;20060;-78
2022/09/15 08:37:30;;;;;;;13.80;6.57;;;15.90;99.90;;;;;;5043129;28;20064;-77
2022/09/15 08:40:31;;;;;;;15.80;6.88;;;16.00;99.90;;;;;;5040453;28;20475;-78
2022/09/15 08:43:13;;;;;;;15.02;7.05;;;16.00;99.90;;;;;;5018880;28;20367;-76
2022/09/15 08:45:52;;;;;;;20.00;7.50;;;15.80;99.90;;;;;;5022750;28;20490;-77
2022/09/15 08:48:26;;;;;;;14.60;6.85;;;16.20;99.90;;;;;;5055708;28;20391;-77
2022/09/15 08:51:01;;;;;;;20.42;6.53;;;16.30;99.90;;;;;;5056744;28;20049;-77
2022/09/15 08:53:46;;;;;;;19.17;7.03;;;16.30;99.90;;;;;;5055701;28;20379;-77
2022/09/15 08:56:19;;;;;;;;;;;16.40;99.90;;;;;;5039769;28;20049;-76
2022/09/15 08:58:47;;;;;;;16.65;6.68;;;16.40;99.90;;;;;;5056767;28;19925;-77
2022/09/15 09:01:27;;;;;;;18.10;6.93;;;16.60;99.90;;;;;;5055328;28;20364;-78
2022/09/15 09:04:12;;;;;;;18.63;6.95;;;15.60;99.90;;;;;;5039846;28;20045;-78
2022/09/15 09:07:00;;;;;;;18.50;6.55;;;16.70;99.90;;;;;;5039246;28;20041;-77
2022/09/15 09:09:56;;;;;;;19.83;6.20;;;15.10;99.90;;;;;;5038877;28;20041;-78
2022/09/15 09:12:45;;;;;;;20.23;6.68;;;17.10;99.90;;;;;;5056295;28;20053;-78
2022/09/15 09:15:32;;;;;;;19.38;6.47;;;17.20;99.90;;;;;;5021629;28;20056;-76
2022/09/15 09:18:32;;;;;;;18.33;6.00;;;16.00;99.90;;;;;;5005801;28;20059;-76
2022/09/15 09:21:25;;;;;;;16.67;6.28;;;17.10;99.90;;;;;;5028249;28;20053;-77
2022/09/15 09:24:16;;;;;;;18.02;6.28;;;17.30;99.90;;;;;;5038859;28;20455;-77
2022/09/15 09:26:54;;;;;;;19.05;6.47;;;15.70;99.90;;;;;;5056550;28;20045;-76
2022/09/15 09:29:57;;;;;;;18.40;5.85;;;17.40;99.90;;;;;;5056282;28;20045;-78
2022/09/15 09:33:12;;;;;;;17.80;6.00;;;17.50;99.90;;;;;;5044638;28;20056;-77
2022/09/15 09:35:55;;;;;;;22.42;6.32;;;17.60;99.90;;;;;;5006289;28;20060;-78
2022/09/15 09:38:33;;;;;;;16.02;5.15;;;17.70;99.90;;;;;;5056097;28;20049;-77
2022/09/15 09:41:24;;;;;;;12.90;5.80;;;16.90;99.90;;;;;;5054864;28;20468;-78
2022/09/15 09:43:54;;;;;;;21.77;6.35;;;18.00;99.90;;;;;;5038674;28;20052;-77
2022/09/15 09:46:30;;;;;;;14.93;6.18;;;18.00;99.90;;;;;;5056374;28;20052;-76
2022/09/15 09:49:24;;;;;;;20.95;6.45;;;17.90;99.90;;;;;;5054397;28;20056;-77
2022/09/15 09:52:02;;;;;;;19.30;6.57;;;17.80;99.90;;;;;;5022311;28;20053;-77
2022/09/15 09:54:38;;;;;;;17.90;6.57;;;18.00;99.90;;;;;;5037164;28;20049;-77
2022/09/15 09:57:30;;;;;;;13.45;5.60;;;18.00;99.90;;;;;;5055506;28;20059;-78
2022/09/15 09:59:58;;;;;;;19.50;5.80;;;17.90;99.90;;;;;;5038164;28;20044;-78
2022/09/15 10:02:27;;;;;;;17.55;6.28;;;18.10;99.90;;;;;;5036975;28;20048;-78
2022/09/15 10:05:17;;;;;;;17.13;6.00;;;18.20;99.90;;;;;;5055552;28;20052;-77
2022/09/15 10:07:46;;;;;;;16.50;6.18;;;18.50;99.90;;;;;;5027684;28;20065;-77
2022/09/15 10:10:27;;;;;;;15.98;5.80;;;16.60;99.90;;;;;;5037849;28;20052;-76
2022/09/15 10:13:02;;;;;;;15.38;5.90;;;18.30;99.90;;;;;;5021794;28;20041;-77
2022/09/15 10:15:39;;;;;;;19.63;6.20;;;18.30;99.90;;;;;;5054443;28;20478;-78
2022/09/15 10:18:35;;;;;;;16.67;5.60;;;18.30;99.90;;;;;;5022139;28;20049;-77
2022/09/15 10:21:06;;;;;;;18.73;5.60;;;18.30;99.90;;;;;;5054318;28;20045;-77
2022/09/15 10:23:35;;;;;;;15.55;5.35;;;18.40;99.90;;;;;;5037994;28;20045;-77
2022/09/15 10:26:15;;;;;;;14.02;5.47;;;18.60;99.90;;;;;;5055191;28;20383;-77
2022/09/15 10:28:44;;;;;;;15.35;4.43;;;18.70;99.90;;;;;;5020074;28;20460;-77
2022/09/15 10:31:26;;;;;;;16.08;4.88;;;20.10;99.90;;;;;;5020968;28;20459;-77
2022/09/15 10:33:54;;;;;;;12.65;4.45;;;18.80;99.90;;;;;;5036599;28;20052;-77
2022/09/15 10:36:27;;;;;;;17.77;4.50;;;18.70;99.90;;;;;;5021421;28;20478;-77
2022/09/15 10:39:37;;;;;;;15.48;4.60;;;18.80;99.90;;;;;;5037385;28;20060;-77
2022/09/15 10:42:25;;;;;;;16.00;5.05;;;18.80;99.90;;;;;;5036111;28;20053;-77
2022/09/15 10:45:46;;;;;;;13.40;4.53;;;18.90;99.90;;;;;;5010168;28;20502;-77
2022/09/15 10:48:29;;;;;;;23.90;4.50;;;19.00;99.90;;;;;;5024099;28;20056;-77
2022/09/15 10:51:21;;;;;;;17.02;4.43;;;19.40;99.90;;;;;;5054944;28;20052;-77
2022/09/15 10:54:16;;;;;;;12.45;3.90;;;19.40;99.90;;;;;;5035773;28;20060;-77
2022/09/15 10:56:50;;;;;;;14.30;4.43;;;19.30;99.40;;;;;;5055125;28;20044;-78
2022/09/15 10:59:35;;;;;;;19.13;4.55;;;19.20;99.70;;;;;;5054847;28;20367;-77
2022/09/15 11:02:27;;;;;;;16.77;4.22;;;19.30;99.70;;;;;;5036128;28;20095;-77
2022/09/15 11:05:16;;;;;;;18.13;4.65;;;19.30;99.20;;;;;;5037709;28;20049;-77
2022/09/15 11:08:22;;;;;;;12.70;3.75;;;19.30;99.30;;;;;;5036157;28;20056;-77
2022/09/15 11:11:39;;;;;;;14.93;4.13;;;19.50;99.00;;;;;;5021487;28;20383;-78
2022/09/15 11:14:53;;;;;;;14.75;3.92;;;19.50;98.40;;;;;;4993532;28;20388;-77
2022/09/15 11:17:42;;;;;;;12.55;3.83;;;19.70;98.50;;;;;;5054471;28;20041;-77
2022/09/15 11:20:18;;;;;;;12.82;3.97;;;19.40;99.00;;;;;;5021911;28;20379;-78
2022/09/15 11:22:57;;;;;;;12.00;3.65;;;19.50;99.10;;;;;;5037816;28;20355;-77
2022/09/15 11:25:42;;;;;;;15.30;3.95;;;19.50;98.50;;;;;;5037479;28;20048;-78
2022/09/15 11:28:34;;;;;;;10.73;3.60;;;19.50;98.30;;;;;;5053340;28;20056;-78
2022/09/15 11:31:16;;;;;;;12.45;3.53;;;19.60;97.90;;;;;;5054312;28;20045;-78
2022/09/15 11:34:01;;;;;;;12.38;4.30;;;19.60;97.80;;;;;;5053324;28;20041;-77
2022/09/15 11:36:39;;;;;;;17.25;3.30;;;19.70;97.90;;;;;;5020907;28;20049;-77
2022/09/15 11:39:34;;;;;;;9.98;2.70;;;19.90;97.60;;;;;;5004300;28;20049;-77
2022/09/15 11:42:17;;;;;;;10.70;2.92;;;20.20;97.00;;;;;;5019762;28;20053;-78
2022/09/15 11:44:50;;;;;;;11.63;2.85;;;20.20;96.60;;;;;;5037400;28;20383;-78
2022/09/15 11:47:35;;;;;;;10.95;2.80;;;20.20;96.80;;;;;;5036374;28;20475;-78
2022/09/15 11:50:19;;;;;;;15.27;3.03;;;20.40;96.20;;;;;;5053874;28;20064;-77
2022/09/15 11:53:07;;;;;;;11.73;2.70;;;20.30;95.50;;;;;;5020188;28;20302;-78
2022/09/15 11:56:04;;;;;;;11.80;2.72;;;20.00;95.40;;;;;;5053237;28;20080;-77
2022/09/15 11:59:13;;;;;;;12.05;2.70;;;20.30;95.80;;;;;;5037044;28;20040;-77
2022/09/15 12:01:52;;;;;;;11.05;2.65;;;19.30;94.90;;;;;;5053182;28;20053;-77
2022/09/15 12:04:36;;;;;;;;;;;20.20;95.30;;;;;;5054299;28;20044;-78
2022/09/15 12:07:23;;;;;;;12.88;2.65;;;20.20;95.00;;;;;;5052976;28;19921;-77
2022/09/15 12:10:26;;;;;;;11.48;2.80;;;20.20;95.70;;;;;;5036750;28;20048;-77
2022/09/15 12:13:07;;;;;;;9.48;2.80;;;19.80;95.00;;;;;;5030064;28;20069;-78
2022/09/15 12:15:37;;;;;;;10.20;2.92;;;19.60;95.40;;;;;;5039215;28;20053;-78
2022/09/15 12:18:19;;;;;;;9.50;2.67;;;18.80;95.70;;;;;;5057317;28;20049;-77
2022/09/15 12:21:38;;;;;;;9.20;2.90;;;19.20;95.90;;;;;;5038748;28;20049;-77
2022/09/15 12:24:48;;;;;;;11.07;3.45;;;19.30;95.40;;;;;;5007892;28;20506;-76
2022/09/15 12:27:20;;;;;;;8.52;3.67;;;17.60;94.70;;;;;;5056287;28;20044;-77
2022/09/15 12:30:02;;;;;;;10.38;4.00;;;19.70;95.10;;;;;;5057724;28;20474;-77
2022/09/15 12:32:33;;;;;;;11.50;3.65;;;18.00;93.90;;;;;;5057428;28;20379;-77
2022/09/15 12:35:29;;;;;;;11.88;3.50;;;20.20;94.80;;;;;;5056302;28;20049;-77
2022/09/15 12:37:58;;;;;;;10.05;3.28;;;20.10;94.20;;;;;;5039651;28;20060;-77
2022/09/15 12:40:33;;;;;;;10.48;3.58;;;20.30;94.00;;;;;;5038968;28;20375;-77
2022/09/15 12:43:19;;;;;;;11.40;2.72;;;20.20;93.40;;;;;;5057239;28;20053;-77
2022/09/15 12:46:15;;;;;;;12.27;3.03;;;20.50;94.40;;;;;;5057209;28;20440;-78
2022/09/15 12:48:46;;;;;;;11.35;2.95;;;20.40;92.80;;;;;;5037653;28;20452;-76
2022/09/15 12:51:28;;;;;;;10.43;2.88;;;20.40;93.00;;;;;;5057132;28;20045;-77
2022/09/15 12:54:24;;;;;;;9.48;3.25;;;20.70;93.00;;;;;;5055840;28;20056;-77
2022/09/15 12:57:00;;;;;;;10.30;3.20;;;20.60;93.40;;;;;;5057412;28;20056;-77
2022/09/15 13:00:16;;;;;;;13.32;3.60;;;20.60;93.10;;;;;;5056612;28;20041;-76
2022/09/15 13:02:56;;;;;;;11.68;3.20;;;20.70;93.10;;;;;;5039044;28;20041;-76
2022/09/15 13:05:44;;;;;;;10.48;3.00;;;20.60;92.60;;;;;;5023054;28;20056;-77
2022/09/15 13:08:33;;;;;;;;;;;20.50;92.90;;;;;;5056097;28;20074;-76
2022/09/15 13:11:09;;;;;;;14.85;3.03;;;20.60;92.70;;;;;;5003916;28;19921;-77
2022/09/15 13:14:13;;;;;;;11.02;2.85;;;20.50;93.00;;;;;;5055964;28;20053;-77
2022/09/15 13:17:15;;;;;;;7.85;2.75;;;20.70;92.70;;;;;;5056552;28;20045;-77
2022/09/15 13:20:10;;;;;;;6.75;2.20;;;20.40;92.30;;;;;;5041087;28;20072;-77
2022/09/15 13:22:55;;;;;;;7.18;2.28;;;20.20;91.90;;;;;;5044596;28;20052;-76
2022/09/15 13:25:39;;;;;;;8.40;2.25;;;20.00;91.60;;;;;;5038752;28;20045;-77
2022/09/15 13:28:14;;;;;;;10.48;2.65;;;19.80;92.30;;;;;;5038296;28;20051;-77
2022/09/15 13:31:19;;;;;;;12.32;2.50;;;19.80;92.00;;;;;;5040113;28;20044;-77
2022/09/15 13:34:18;;;;;;;8.40;2.28;;;20.00;91.40;;;;;;5037722;28;20049;-77
2022/09/15 13:37:54;;;;;;;7.95;2.28;;;19.50;91.60;;;;;;5038569;28;20056;-77
2022/09/15 13:41:21;;;;;;;9.27;2.40;;;19.60;91.80;;;;;;4974972;28;20058;-77
2022/09/15 13:44:01;;;;;;;9.10;2.17;;;19.70;91.70;;;;;;5005105;28;20060;-76